Time;durP1;ratioP1;P1;durP2;ratioP2;P2;SDS_P1;SDS_P2;PMS_P1;PMS_P2;Temp;Humidity;BMP_temperature;BMP_pressure;BME280_temperature;BME280_humidity;BME280_pressure;Samples;Min_cycle;Max_cycle;Signal;HPM_P1;HPM_P2
2021/08/27 00:01:51;;;;;;;;;5.00;5.00;;;;;18.33;61.14;101599.28;5030674;28;53596;-75
2021/08/27 00:04:17;;;;;;;;;8.50;6.25;;;;;18.30;61.84;101605.63;5031220;28;45427;-74
2021/08/27 00:06:42;;;;;;;;;5.50;5.50;;;;;18.09;61.66;101575.03;5031345;28;47049;-75
2021/08/27 00:09:07;;;;;;;;;5.00;5.00;;;;;18.22;61.64;101600.78;5029178;28;45576;-75
2021/08/27 00:11:33;;;;;;;;;5.00;5.00;;;;;18.24;61.81;101598.88;5011156;28;46301;-75
2021/08/27 00:13:58;;;;;;;;;7.25;6.00;;;;;18.17;62.40;101599.38;5029204;28;45478;-75
2021/08/27 00:16:23;;;;;;;;;6.75;5.00;;;;;18.13;62.59;101581.88;5030651;28;45899;-75
2021/08/27 00:18:49;;;;;;;;;10.50;5.75;;;;;18.25;62.00;101599.72;5031644;28;45345;-75
2021/08/27 00:21:14;;;;;;;;;7.25;5.75;;;;;18.13;62.05;101587.19;5029497;28;45523;-75
2021/08/27 00:23:39;;;;;;;;;7.00;4.00;;;;;18.21;62.44;101606.19;5036471;28;45489;-75
2021/08/27 00:26:05;;;;;;;;;6.00;5.50;;;;;18.19;62.40;101592.13;5036168;28;45325;-75
2021/08/27 00:28:30;;;;;;;;;7.00;5.50;;;;;17.97;62.75;101571.31;5036562;28;45440;-75
2021/08/27 00:30:57;;;;;;;;;9.00;6.00;;;;;18.19;63.10;101594.78;5034709;28;45395;-76
2021/08/27 00:33:24;;;;;;;;;5.25;4.00;;;;;18.15;62.94;101586.13;5035776;28;45472;-75
2021/08/27 00:35:50;;;;;;;;;8.00;7.00;;;;;18.17;62.70;101592.25;5035748;28;45523;-75
2021/08/27 00:38:16;;;;;;;;;8.25;6.50;;;;;18.14;62.39;101588.91;5037672;28;45801;-75
2021/08/27 00:40:42;;;;;;;;;10.25;5.50;;;;;18.11;62.58;101591.72;5036819;28;46420;-75
2021/08/27 00:43:11;;;;;;;;;6.00;6.00;;;;;18.07;63.08;101587.56;5034880;28;45601;-75
2021/08/27 00:45:36;;;;;;;;;6.50;5.75;;;;;18.05;62.74;101589.44;5035700;28;45299;-74
2021/08/27 00:48:01;;;;;;;;;6.50;4.50;;;;;18.04;62.97;101599.25;5036361;28;45502;-75
2021/08/27 00:50:27;;;;;;;;;8.00;5.25;;;;;18.02;62.97;101594.97;5038146;28;46186;-75
2021/08/27 00:52:52;;;;;;;;;5.25;4.25;;;;;17.94;63.69;101587.44;5039667;28;45598;-75
2021/08/27 00:55:20;;;;;;;;;7.00;4.75;;;;;17.99;63.58;101602.16;5034338;28;45577;-75
2021/08/27 00:57:45;;;;;;;;;9.00;5.25;;;;;17.98;63.23;101599.63;5035057;28;45513;-75
2021/08/27 01:00:12;;;;;;;;;6.00;5.25;;;;;17.97;64.00;101597.91;5035271;28;60150;-75
2021/08/27 01:02:37;;;;;;;;;8.25;6.00;;;;;17.94;63.86;101593.63;5035647;28;45519;-75
2021/08/27 01:05:06;;;;;;;;;8.25;6.00;;;;;17.90;63.87;101592.06;5041664;28;45788;-75
2021/08/27 01:07:36;;;;;;;;;9.00;5.00;;;;;17.87;63.95;101586.09;5033783;28;45415;-76
2021/08/27 01:10:18;;;;;;;;;8.00;5.00;;;;;17.72;63.71;101574.56;5030862;28;46186;-76
2021/08/27 01:13:04;;;;;;;;;5.00;5.00;;;;;17.74;64.36;101584.16;5033137;28;45676;-75
2021/08/27 01:15:38;;;;;;;;;7.00;6.00;;;;;17.65;64.01;101592.69;5034607;28;45394;-75
2021/08/27 01:18:13;;;;;;;;;6.75;6.50;;;;;17.58;64.58;101579.81;5034325;28;45563;-75
2021/08/27 01:21:15;;;;;;;;;9.50;7.25;;;;;17.50;64.66;101584.75;5015968;28;46424;-75
2021/08/27 01:23:44;;;;;;;;;10.25;9.25;;;;;17.40;64.89;101582.63;5033447;28;45458;-76
2021/08/27 01:26:13;;;;;;;;;9.75;8.00;;;;;17.33;64.90;101575.06;5033970;28;45549;-76
2021/08/27 01:28:46;;;;;;;;;7.25;5.00;;;;;17.25;65.14;101575.53;5034014;28;45434;-76
2021/08/27 01:31:15;;;;;;;;;9.25;8.00;;;;;17.20;65.31;101575.78;5034306;28;45467;-76
2021/08/27 01:33:46;;;;;;;;;8.00;7.25;;;;;17.13;65.63;101573.59;5034339;28;45292;-76
2021/08/27 01:36:12;;;;;;;;;5.50;4.75;;;;;17.08;65.69;101567.69;5033315;28;47787;-76
2021/08/27 01:38:42;;;;;;;;;9.50;7.00;;;;;16.99;65.81;101569.03;5034701;28;45449;-76
2021/08/27 01:41:11;;;;;;;;;10.50;6.50;;;;;17.00;66.36;101577.88;5032929;28;47299;-75
2021/08/27 01:43:40;;;;;;;;;6.50;5.00;;;;;16.97;66.67;101581.56;5034737;28;45301;-76
2021/08/27 01:46:06;;;;;;;;;6.00;6.00;;;;;16.93;66.25;101580.88;5034442;28;45455;-76
2021/08/27 01:48:37;;;;;;;;;6.00;5.25;;;;;16.91;67.09;101587.19;5034200;28;45349;-75
2021/08/27 01:51:07;;;;;;;;;10.25;7.50;;;;;16.88;66.80;101579.41;5032599;28;46113;-76
2021/08/27 01:53:34;;;;;;;;;8.00;6.25;;;;;16.86;67.03;101582.16;5033175;28;45399;-76
2021/08/27 01:56:02;;;;;;;;;8.25;6.25;;;;;16.83;66.64;101584.97;5033761;28;45846;-76
2021/08/27 01:58:30;;;;;;;;;6.50;6.00;;;;;16.69;67.57;101569.78;5032991;28;45504;-75
2021/08/27 02:00:57;;;;;;;;;9.50;6.00;;;;;16.72;67.62;101578.56;5033953;28;46261;-75
2021/08/27 02:03:25;;;;;;;;;7.75;5.00;;;;;16.73;67.46;101594.38;5034024;28;45607;-76
2021/08/27 02:05:52;;;;;;;;;8.50;7.00;;;;;16.71;67.59;101593.63;5032654;28;45486;-76
2021/08/27 02:08:20;;;;;;;;;6.25;6.00;;;;;16.72;67.92;101594.47;5033849;28;45511;-75
2021/08/27 02:10:46;;;;;;;;;8.00;5.25;;;;;16.68;67.91;101585.78;5033890;28;46242;-76
2021/08/27 02:13:12;;;;;;;;;7.00;6.00;;;;;16.68;68.05;101599.06;5033752;28;45961;-75
2021/08/27 02:15:40;;;;;;;;;7.00;5.25;;;;;16.67;68.43;101602.66;5034725;28;45380;-76
2021/08/27 02:18:05;;;;;;;;;9.00;5.75;;;;;16.65;68.11;101600.09;5032909;28;45565;-75
2021/08/27 02:20:34;;;;;;;;;7.75;6.00;;;;;16.64;68.13;101597.50;5032011;28;46205;-75
2021/08/27 02:23:03;;;;;;;;;7.25;7.25;;;;;16.62;68.20;101599.41;5033021;28;45329;-75
2021/08/27 02:25:31;;;;;;;;;8.00;6.00;;;;;16.59;68.46;101596.91;5033436;28;45499;-76
2021/08/27 02:28:02;;;;;;;;;12.75;6.00;;;;;16.54;68.73;101596.28;5033654;28;45402;-75
2021/08/27 02:30:28;;;;;;;;;7.75;6.00;;;;;16.56;69.09;101597.94;5031639;28;46445;-76
2021/08/27 02:32:55;;;;;;;;;13.00;6.00;;;;;16.51;68.86;101594.69;5033060;28;45641;-75
2021/08/27 02:35:22;;;;;;;;;8.25;6.25;;;;;16.51;68.96;101586.72;5037863;28;45582;-75
2021/08/27 02:37:48;;;;;;;;;8.75;6.75;;;;;16.60;69.29;101595.97;5033341;28;45378;-75
2021/08/27 02:40:14;;;;;;;;;11.00;7.00;;;;;16.64;69.02;101600.16;5032817;28;45499;-76
2021/08/27 02:42:41;;;;;;;;;12.00;6.50;;;;;16.65;69.12;101593.91;5033324;28;45554;-75
2021/08/27 02:45:07;;;;;;;;;8.50;6.50;;;;;16.69;69.01;101600.78;5033378;28;45404;-76
2021/08/27 02:47:33;;;;;;;;;11.50;8.00;;;;;16.71;68.14;101593.63;5033145;28;45364;-76
2021/08/27 02:49:59;;;;;;;;;6.25;5.75;;;;;16.69;68.70;101587.50;5031297;28;45301;-76
2021/08/27 02:52:34;;;;;;;;;10.50;8.00;;;;;16.74;68.91;101593.44;5032829;28;45722;-75
2021/08/27 02:55:12;;;;;;;;;13.25;8.25;;;;;16.75;68.73;101595.16;5029369;28;45290;-76
2021/08/27 02:57:45;;;;;;;;;10.75;8.00;;;;;16.77;69.07;101597.75;5032189;28;45569;-76
2021/08/27 03:00:12;;;;;;;;;7.75;6.00;;;;;16.75;68.98;101592.50;5031945;28;46253;-76
2021/08/27 03:02:38;;;;;;;;;10.00;7.00;;;;;16.75;69.12;101589.00;5031749;28;45543;-76
2021/08/27 03:05:11;;;;;;;;;11.00;6.75;;;;;16.82;69.19;101588.59;5032333;28;45521;-75
2021/08/27 03:07:42;;;;;;;;;5.50;5.25;;;;;16.87;68.69;101588.31;5026900;28;45513;-76
2021/08/27 03:10:14;;;;;;;;;10.00;6.00;;;;;16.85;68.78;101576.91;5032319;28;46402;-76
2021/08/27 03:12:53;;;;;;;;;8.00;8.00;;;;;16.89;68.90;101581.97;5032747;28;45372;-76
2021/08/27 03:15:26;;;;;;;;;7.50;5.00;;;;;16.89;68.74;101578.47;5032642;28;45352;-76
2021/08/27 03:17:55;;;;;;;;;9.75;7.25;;;;;16.93;69.02;101577.38;5033937;28;45586;-75
2021/08/27 03:20:25;;;;;;;;;5.25;5.00;;;;;16.93;68.52;101580.00;5035902;28;46341;-75
2021/08/27 03:22:56;;;;;;;;;7.50;6.75;;;;;16.92;69.00;101575.66;5036607;28;45275;-76
2021/08/27 03:25:24;;;;;;;;;11.50;6.00;;;;;16.91;68.94;101577.47;5036305;28;45480;-76
2021/08/27 03:27:53;;;;;;;;;11.50;9.50;;;;;16.91;68.66;101574.81;5036138;28;45515;-75
2021/08/27 03:30:22;;;;;;;;;8.25;6.00;;;;;16.86;68.87;101566.25;5034568;28;46008;-76
2021/08/27 03:32:52;;;;;;;;;11.00;6.00;;;;;16.93;68.50;101583.53;5034109;28;45738;-75
2021/08/27 03:35:19;;;;;;;;;12.00;5.50;;;;;16.91;68.75;101579.22;5035457;28;45352;-78
2021/08/27 03:37:49;;;;;;;;;13.75;8.50;;;;;16.93;68.92;101580.00;5035129;28;45604;-77
2021/08/27 03:40:15;;;;;;;;;8.00;7.50;;;;;16.90;68.94;101573.06;5035315;28;45444;-76
2021/08/27 03:42:42;;;;;;;;;10.75;7.75;;;;;16.90;69.02;101566.91;5036348;28;45432;-76
2021/08/27 03:45:09;;;;;;;;;12.00;6.00;;;;;16.97;68.62;101578.91;5036007;28;45316;-76
2021/08/27 03:47:36;;;;;;;;;11.50;7.75;;;;;16.78;68.32;101541.91;5042236;28;45511;-76
2021/08/27 03:50:02;;;;;;;;;12.75;7.75;;;;;16.99;68.71;101584.13;5035870;28;46173;-76
2021/08/27 03:52:28;;;;;;;;;7.50;7.25;;;;;16.99;68.86;101578.81;5036105;28;45906;-76
2021/08/27 03:54:54;;;;;;;;;6.25;6.25;;;;;16.96;69.22;101571.84;5036447;28;45444;-76
2021/08/27 03:57:20;;;;;;;;;8.50;5.75;;;;;16.88;68.91;101569.66;5035853;28;45411;-76
2021/08/27 03:59:45;;;;;;;;;9.25;6.75;;;;;16.85;69.59;101571.59;5035633;28;45995;-76
2021/08/27 04:02:12;;;;;;;;;9.00;6.75;;;;;16.80;69.34;101571.00;5034515;28;45337;-76
2021/08/27 04:04:38;;;;;;;;;9.50;8.00;;;;;16.70;69.11;101565.31;5043337;28;46214;-76
2021/08/27 04:07:04;;;;;;;;;11.25;7.25;;;;;16.67;69.82;101565.50;5036212;28;45381;-76
2021/08/27 04:09:34;;;;;;;;;9.25;8.00;;;;;16.56;70.02;101557.28;5036242;28;45978;-76
2021/08/27 04:12:02;;;;;;;;;10.75;6.50;;;;;16.57;69.96;101564.28;5035612;28;45549;-76
2021/08/27 04:14:28;;;;;;;;;9.00;8.00;;;;;16.54;69.48;101569.75;5035374;28;45682;-75
2021/08/27 04:16:54;;;;;;;;;9.00;5.75;;;;;16.45;70.01;101568.47;5035214;28;45350;-77
2021/08/27 04:19:19;;;;;;;;;7.25;6.00;;;;;16.42;69.79;101566.84;5035602;28;45333;-76
2021/08/27 04:21:44;;;;;;;;;8.00;7.00;;;;;16.36;70.39;101561.88;5036107;28;45628;-76
2021/08/27 04:24:11;;;;;;;;;12.75;9.75;;;;;16.34;70.65;101565.53;5035800;28;45634;-76
2021/08/27 04:26:37;;;;;;;;;10.25;7.75;;;;;16.33;71.13;101562.03;5035611;28;45496;-76
2021/08/27 04:29:04;;;;;;;;;12.50;8.25;;;;;16.24;70.77;101553.72;5035341;28;46189;-77
2021/08/27 04:31:30;;;;;;;;;8.25;5.75;;;;;16.28;70.65;101579.13;5035012;28;45927;-77
2021/08/27 04:33:55;;;;;;;;;9.25;8.00;;;;;16.24;71.30;101577.59;5036084;28;45395;-77
2021/08/27 04:36:21;;;;;;;;;9.00;7.00;;;;;16.18;71.31;101571.69;5034979;28;45475;-76
2021/08/27 04:38:46;;;;;;;;;10.00;7.25;;;;;16.23;71.41;101571.41;5035112;28;45974;-76
2021/08/27 04:41:11;;;;;;;;;13.25;8.50;;;;;16.27;72.04;101583.56;5034215;28;52224;-76
2021/08/27 04:43:36;;;;;;;;;9.00;7.50;;;;;16.30;71.64;101580.78;5034897;28;47516;-77
2021/08/27 04:46:02;;;;;;;;;7.50;7.50;;;;;16.33;71.57;101587.69;5035369;28;45932;-76
2021/08/27 04:48:28;;;;;;;;;10.75;7.00;;;;;16.35;71.62;101586.69;5034932;28;45427;-76
2021/08/27 04:50:53;;;;;;;;;10.00;9.00;;;;;16.36;71.83;101588.41;5034580;28;50289;-76
2021/08/27 04:53:18;;;;;;;;;11.50;9.75;;;;;16.36;71.63;101575.13;5035089;28;45804;-75
2021/08/27 04:55:43;;;;;;;;;10.00;8.75;;;;;16.45;71.64;101584.41;5035047;28;45307;-76
2021/08/27 04:58:09;;;;;;;;;13.50;8.00;;;;;16.41;71.73;101581.03;5035211;28;46260;-77
2021/08/27 05:00:35;;;;;;;;;10.25;7.50;;;;;16.47;71.49;101584.31;5034873;28;45442;-77
2021/08/27 05:03:00;;;;;;;;;10.75;7.00;;;;;16.48;71.61;101589.53;5039237;28;45479;-77
2021/08/27 05:05:26;;;;;;;;;12.75;10.75;;;;;16.48;71.87;101591.31;5042699;28;45394;-77
2021/08/27 05:07:51;;;;;;;;;15.00;9.50;;;;;16.48;71.77;101604.59;5034480;28;46874;-76
2021/08/27 05:10:16;;;;;;;;;13.50;10.50;;;;;16.48;71.80;101591.31;5016849;28;45461;-76
2021/08/27 05:12:42;;;;;;;;;8.50;6.00;;;;;16.42;71.86;101593.38;5035804;28;45479;-77
2021/08/27 05:15:08;;;;;;;;;13.25;9.25;;;;;16.48;72.07;101605.44;5034049;28;45381;-77
2021/08/27 05:17:34;;;;;;;;;12.75;10.00;;;;;16.49;72.06;101596.53;5034427;28;47135;-76
2021/08/27 05:20:00;;;;;;;;;11.25;8.00;;;;;16.62;72.15;101612.66;5034995;28;45796;-76
2021/08/27 05:22:25;;;;;;;;;14.50;9.00;;;;;16.65;71.69;101605.41;5034693;28;45333;-77
2021/08/27 05:24:50;;;;;;;;;13.00;10.00;;;;;16.65;72.15;101597.44;5035028;28;45265;-77
2021/08/27 05:27:16;;;;;;;;;10.50;8.75;;;;;16.73;71.79;101610.31;5034335;28;47958;-77
2021/08/27 05:29:41;;;;;;;;;15.25;9.25;;;;;16.73;71.78;101590.88;5034256;28;45312;-77
2021/08/27 05:32:07;;;;;;;;;12.00;9.75;;;;;16.82;71.76;101601.00;5045480;28;45577;-76
2021/08/27 05:34:33;;;;;;;;;15.75;10.75;;;;;16.89;71.65;101613.84;5034738;28;45535;-76
2021/08/27 05:36:58;;;;;;;;;13.50;8.25;;;;;16.94;71.97;101617.09;5029794;28;56256;-76
2021/08/27 05:39:27;;;;;;;;;15.75;10.00;;;;;17.00;71.43;101615.03;5033286;28;48430;-76
2021/08/27 05:41:53;;;;;;;;;19.25;9.75;;;;;17.05;71.93;101616.50;5034034;28;45438;-76
2021/08/27 05:44:18;;;;;;;;;12.75;10.25;;;;;17.09;71.80;101627.81;5033760;28;45427;-76
2021/08/27 05:46:44;;;;;;;;;16.50;10.50;;;;;17.08;71.64;101621.66;5034399;28;51510;-76
2021/08/27 05:49:09;;;;;;;;;8.50;8.50;;;;;17.17;71.10;101628.22;5033876;28;52743;-77
2021/08/27 05:51:34;;;;;;;;;14.00;12.00;;;;;17.21;71.17;101627.97;5034360;28;45605;-76
2021/08/27 05:54:00;;;;;;;;;12.00;10.75;;;;;17.26;71.19;101635.69;5034068;28;45481;-77
2021/08/27 05:56:25;;;;;;;;;12.50;10.00;;;;;17.30;71.25;101634.56;5033769;28;46078;-76
2021/08/27 05:58:50;;;;;;;;;12.75;11.50;;;;;17.35;71.16;101637.81;5033715;28;45359;-76
2021/08/27 06:01:16;;;;;;;;;13.25;10.00;;;;;17.37;71.03;101635.91;5033488;28;45372;-76
2021/08/27 06:03:41;;;;;;;;;14.00;9.75;;;;;17.45;71.03;101641.66;5034513;28;45308;-76
2021/08/27 06:06:06;;;;;;;;;13.00;11.75;;;;;17.47;71.20;101636.25;5033975;28;46137;-77
2021/08/27 06:08:34;;;;;;;;;15.00;10.00;;;;;17.52;71.17;101643.97;5033827;28;45388;-76
2021/08/27 06:10:59;;;;;;;;;10.75;10.00;;;;;17.59;70.64;101648.84;5033933;28;45427;-76
2021/08/27 06:13:25;;;;;;;;;12.00;9.25;;;;;17.61;71.22;101624.84;5033749;28;53033;-77
2021/08/27 06:15:50;;;;;;;;;13.00;11.25;;;;;17.77;70.71;101640.78;5034162;28;46122;-77
2021/08/27 06:18:15;;;;;;;;;16.75;14.25;;;;;17.88;71.02;101641.00;5033637;28;45590;-76
2021/08/27 06:20:41;;;;;;;;;14.75;13.50;;;;;17.95;70.81;101645.84;5033801;28;45526;-76
2021/08/27 06:23:07;;;;;;;;;18.00;12.25;;;;;17.92;70.40;101635.41;5034175;28;45476;-76
2021/08/27 06:25:33;;;;;;;;;19.25;13.25;;;;;18.02;70.00;101651.69;5033716;28;46420;-77
2021/08/27 06:27:58;;;;;;;;;20.50;13.75;;;;;18.04;69.68;101651.59;5033785;28;45983;-76
2021/08/27 06:30:23;;;;;;;;;18.00;13.00;;;;;17.99;69.69;101641.22;5031786;28;45730;-76
2021/08/27 06:32:49;;;;;;;;;14.25;11.00;;;;;18.08;69.58;101661.09;5034836;28;45486;-77
2021/08/27 06:35:14;;;;;;;;;20.25;16.00;;;;;18.13;69.83;101653.69;5033260;28;45810;-77
2021/08/27 06:40:24;;;;;;;;;21.50;14.75;;;;;18.45;69.43;101659.72;5033240;28;45886;-77
2021/08/27 06:42:49;;;;;;;;;16.00;12.00;;;;;18.69;69.02;101673.38;5033808;28;45406;-76
2021/08/27 06:45:14;;;;;;;;;17.50;12.00;;;;;18.88;68.68;101676.56;5033189;28;47648;-77
2021/08/27 06:47:40;;;;;;;;;15.25;14.75;;;;;19.04;68.29;101669.31;5033690;28;45451;-76
2021/08/27 06:50:05;;;;;;;;;15.25;10.25;;;;;19.25;67.99;101666.25;5033441;28;45706;-77
2021/08/27 06:52:31;;;;;;;;;21.50;15.00;;;;;19.32;67.32;101662.25;5019743;28;45543;-77
2021/08/27 06:54:57;;;;;;;;;21.25;13.75;;;;;19.46;67.34;101669.31;5036775;28;45896;-76
2021/08/27 06:57:23;;;;;;;;;14.50;12.00;;;;;19.46;67.02;101667.50;5037139;28;45301;-77
2021/08/27 06:59:48;;;;;;;;;19.50;14.00;;;;;19.41;66.41;101661.63;5036421;28;48192;-77
2021/08/27 07:02:13;;;;;;;;;18.25;14.75;;;;;19.53;66.94;101678.66;5036842;28;45437;-77
2021/08/27 07:04:38;;;;;;;;;22.50;12.75;;;;;19.52;66.19;101671.56;5036882;28;45534;-76
2021/08/27 07:07:04;;;;;;;;;16.25;14.25;;;;;19.66;66.06;101681.38;5036793;28;45340;-77
2021/08/27 07:09:29;;;;;;;;;21.75;17.50;;;;;19.75;65.89;101692.31;5035970;28;45250;-77
2021/08/27 07:11:54;;;;;;;;;19.50;14.00;;;;;19.79;66.11;101687.63;5036051;28;50270;-77
2021/08/27 07:14:20;;;;;;;;;17.50;13.25;;;;;19.81;65.47;101693.69;5036041;28;53378;-77
2021/08/27 07:16:45;;;;;;;;;18.00;14.25;;;;;19.84;65.38;101685.50;5035345;28;55219;-77
2021/08/27 07:19:10;;;;;;;;;10.75;10.75;;;;;19.89;65.62;101694.06;5040102;28;45447;-76
2021/08/27 07:21:36;;;;;;;;;20.50;14.00;;;;;19.92;65.48;101691.16;5035687;28;49208;-77
2021/08/27 07:24:01;;;;;;;;;20.00;14.00;;;;;20.00;65.00;101694.19;5040009;28;45419;-77
2021/08/27 07:26:26;;;;;;;;;12.75;11.50;;;;;20.14;64.76;101690.56;5039671;28;63909;-77
2021/08/27 07:28:51;;;;;;;;;15.75;13.00;;;;;20.13;64.62;101683.53;5036295;28;48355;-77
2021/08/27 07:31:17;;;;;;;;;20.50;16.75;;;;;20.33;64.49;101703.53;5036144;28;45539;-77
2021/08/27 07:33:42;;;;;;;;;18.75;13.75;;;;;20.56;63.91;101708.16;5036145;28;45539;-76
2021/08/27 07:36:07;;;;;;;;;14.00;11.00;;;;;20.91;63.26;101701.31;5035646;28;45460;-76
2021/08/27 07:38:34;;;;;;;;;15.00;11.50;;;;;21.14;63.05;101688.94;5035675;28;45671;-77
2021/08/27 07:40:59;;;;;;;;;20.25;12.75;;;;;21.46;62.00;101706.22;5035349;28;45883;-77
2021/08/27 07:43:24;;;;;;;;;16.50;11.75;;;;;21.59;61.50;101692.78;5035184;28;46181;-77
2021/08/27 07:45:56;;;;;;;;;12.25;10.75;;;;;21.73;61.24;101711.34;5035719;28;45403;-77
2021/08/27 07:48:23;;;;;;;;;9.75;9.50;;;;;21.83;60.80;101712.38;5035818;28;45289;-77
2021/08/27 07:50:48;;;;;;;;;15.25;13.00;;;;;22.12;60.83;101704.84;5017787;28;45457;-77
2021/08/27 07:53:13;;;;;;;;;9.50;9.25;;;;;22.31;59.52;101703.44;5034746;28;51165;-76
2021/08/27 07:55:39;;;;;;;;;12.25;9.25;;;;;22.44;59.15;101706.84;5018802;28;56752;-76
2021/08/27 07:58:04;;;;;;;;;13.50;7.00;;;;;22.64;58.35;101702.63;5035685;28;45498;-76
2021/08/27 08:00:30;;;;;;;;;7.25;7.25;;;;;22.77;58.35;101708.75;5035821;28;45756;-76
2021/08/27 08:02:55;;;;;;;;;11.00;9.00;;;;;22.97;57.28;101704.50;5034618;28;46051;-76
2021/08/27 08:05:20;;;;;;;;;7.00;6.25;;;;;23.21;56.68;101708.88;5039349;28;45802;-76
2021/08/27 08:07:46;;;;;;;;;12.50;7.25;;;;;23.38;56.65;101702.97;5037246;28;45419;-77
2021/08/27 08:10:11;;;;;;;;;9.25;8.00;;;;;23.58;56.10;101698.66;5035512;28;45348;-77
2021/08/27 08:12:36;;;;;;;;;13.75;10.00;;;;;23.65;55.76;101703.44;5034924;28;46534;-76
2021/08/27 08:15:02;;;;;;;;;12.00;8.75;;;;;23.73;55.21;101713.53;5035434;28;45308;-77
2021/08/27 08:17:27;;;;;;;;;10.25;7.25;;;;;23.97;54.53;101715.16;5035507;28;45443;-76
2021/08/27 08:19:53;;;;;;;;;9.00;6.25;;;;;24.24;54.11;101718.19;5035565;28;45430;-76
2021/08/27 08:22:21;;;;;;;;;7.25;7.25;;;;;24.39;54.42;101710.69;5034953;28;45441;-76
2021/08/27 08:24:46;;;;;;;;;7.00;6.50;;;;;24.57;52.67;101724.34;5036004;28;45309;-76
2021/08/27 08:27:11;;;;;;;;;11.50;8.00;;;;;24.68;52.42;101717.06;5034620;28;50828;-75
2021/08/27 08:29:38;;;;;;;;;9.25;6.25;;;;;24.91;52.00;101723.13;5035213;28;45503;-78
2021/08/27 08:32:05;;;;;;;;;6.25;4.50;;;;;25.23;50.55;101719.44;5039104;28;46301;-76
2021/08/27 08:34:31;;;;;;;;;5.50;4.25;;;;;25.63;49.44;101718.50;5034215;28;45818;-77
2021/08/27 08:36:56;;;;;;;;;5.00;3.00;;;;;26.28;49.15;101725.91;5035243;28;45393;-77
2021/08/27 08:39:22;;;;;;;;;4.50;4.00;;;;;26.96;48.20;101720.34;5034951;28;45732;-77
2021/08/27 08:41:48;;;;;;;;;7.50;6.00;;;;;27.27;46.65;101723.63;5035036;28;46158;-77
2021/08/27 08:44:13;;;;;;;;;6.00;3.00;;;;;27.04;46.63;101720.47;5034705;28;45407;-77
2021/08/27 08:46:41;;;;;;;;;5.50;5.00;;;;;27.11;46.39;101718.06;5034876;28;45867;-77
2021/08/27 08:49:07;;;;;;;;;8.25;6.25;;;;;27.65;46.65;101731.63;5033704;28;45634;-76
2021/08/27 08:51:35;;;;;;;;;4.25;4.25;;;;;29.23;45.89;101729.78;5034934;28;46182;-76
2021/08/27 08:54:00;;;;;;;;;5.00;4.00;;;;;30.23;43.08;101723.41;5034295;28;45601;-75
2021/08/27 08:56:26;;;;;;;;;9.25;5.50;;;;;30.80;42.22;101728.75;5034645;28;45227;-75
2021/08/27 08:58:51;;;;;;;;;5.00;3.25;;;;;31.05;40.72;101734.06;5035311;28;45512;-76
2021/08/27 09:01:17;;;;;;;;;4.75;3.00;;;;;31.20;40.82;101729.56;5034643;28;45902;-76
2021/08/27 09:03:46;;;;;;;;;8.00;4.50;;;;;31.77;40.21;101737.41;5034703;28;45306;-76
2021/08/27 09:06:12;;;;;;;;;6.50;5.00;;;;;32.38;39.16;101740.22;5034550;28;45575;-77
2021/08/27 09:08:43;;;;;;;;;7.00;5.00;;;;;32.96;37.62;101731.25;5034476;28;45450;-76
2021/08/27 09:11:17;;;;;;;;;5.00;3.50;;;;;33.34;37.69;101741.16;5033024;28;46201;-76
2021/08/27 09:13:44;;;;;;;;;6.75;3.00;;;;;33.38;37.92;101740.56;5033988;28;45478;-77
2021/08/27 09:16:10;;;;;;;;;3.50;3.00;;;;;33.26;36.70;101736.66;5034712;28;45387;-77
2021/08/27 09:18:44;;;;;;;;;3.25;3.25;;;;;33.36;36.35;101736.34;5033756;28;45517;-76
2021/08/27 09:21:36;;;;;;;;;6.75;5.50;;;;;33.59;35.69;101736.22;5033551;28;46177;-76
2021/08/27 09:24:22;;;;;;;;;5.75;3.75;;;;;33.40;35.77;101743.09;5034079;28;45247;-76
2021/08/27 09:26:52;;;;;;;;;2.50;2.00;;;;;33.03;36.28;101747.66;5034373;28;45465;-77
2021/08/27 09:29:38;;;;;;;;;3.75;3.00;;;;;32.92;35.98;101734.53;5034060;28;45520;-78
2021/08/27 09:32:27;;;;;;;;;4.75;3.75;;;;;32.59;36.09;101747.66;5033921;28;46134;-76
2021/08/27 09:35:21;;;;;;;;;3.00;3.00;;;;;31.83;36.25;101744.88;5014029;28;45459;-75
2021/08/27 09:37:50;;;;;;;;;5.75;3.50;;;;;31.10;36.51;101740.66;5018537;28;45597;-75
2021/08/27 09:40:27;;;;;;;;;3.00;3.00;;;;;30.70;37.33;101744.38;5041999;28;46029;-75
2021/08/27 09:42:53;;;;;;;;;1.50;1.50;;;;;30.41;36.69;101734.03;5033615;28;45378;-75
2021/08/27 09:45:31;;;;;;;;;2.75;2.00;;;;;30.28;37.70;101741.84;5033740;28;45373;-75
2021/08/27 09:48:10;;;;;;;;;1.00;1.00;;;;;30.47;37.20;101751.50;5034096;28;45509;-75
2021/08/27 09:50:37;;;;;;;;;3.25;1.25;;;;;30.76;36.98;101743.66;5035703;28;45648;-75
2021/08/27 09:53:05;;;;;;;;;2.00;2.00;;;;;30.99;35.94;101746.47;5034687;28;45581;-75
2021/08/27 09:55:32;;;;;;;;;2.75;1.00;;;;;31.07;35.35;101732.03;5033203;28;45575;-75
2021/08/27 09:58:04;;;;;;;;;1.00;1.00;;;;;31.30;34.43;101742.97;5032706;28;45630;-74
2021/08/27 10:00:33;;;;;;;;;2.25;1.00;;;;;31.42;35.51;101746.97;5032560;28;45321;-75
2021/08/27 10:03:02;;;;;;;;;2.00;1.00;;;;;31.52;34.14;101742.16;5032183;28;45429;-75
2021/08/27 10:05:38;;;;;;;;;0.00;0.00;;;;;31.65;33.55;101726.13;5032553;28;45685;-75
2021/08/27 10:08:35;;;;;;;;;1.50;0.50;;;;;32.01;33.26;101749.19;5033365;28;45466;-75
2021/08/27 10:11:22;;;;;;;;;1.50;1.50;;;;;32.39;34.06;101731.84;5013301;28;45889;-75
2021/08/27 10:13:48;;;;;;;;;1.00;1.00;;;;;32.69;33.36;101734.63;5034325;28;46366;-75
2021/08/27 10:16:14;;;;;;;;;0.00;0.00;;;;;33.20;32.41;101737.41;5032139;28;45527;-75
2021/08/27 10:18:40;;;;;;;;;1.25;0.25;;;;;33.00;32.04;101737.19;5030268;28;45548;-75
2021/08/27 10:21:06;;;;;;;;;0.75;0.00;;;;;32.58;32.24;101735.94;5033681;28;45589;-75
2021/08/27 10:23:32;;;;;;;;;0.00;0.00;;;;;32.05;31.92;101731.44;5036274;28;45348;-75
2021/08/27 10:26:13;;;;;;;;;1.00;0.50;;;;;31.46;32.18;101732.00;5033189;28;45639;-75
2021/08/27 10:28:38;;;;;;;;;1.00;1.00;;;;;31.02;32.85;101739.84;5030314;28;45316;-74
2021/08/27 10:31:04;;;;;;;;;3.50;1.00;;;;;30.31;33.31;101741.50;5038708;28;45248;-74
2021/08/27 10:33:39;;;;;;;;;5.00;1.50;;;;;29.38;33.67;101737.09;5035441;28;45378;-75
2021/08/27 10:36:09;;;;;;;;;1.00;0.50;;;;;28.96;34.32;101729.00;5034582;28;45491;-77
2021/08/27 10:38:45;;;;;;;;;1.00;1.00;;;;;29.01;34.72;101733.91;5036393;28;45447;-75
2021/08/27 10:41:16;;;;;;;;;2.25;1.75;;;;;29.00;33.98;101729.53;5045015;28;45526;-77
2021/08/27 10:43:52;;;;;;;;;1.00;1.00;;;;;28.89;34.84;101727.06;5036681;28;46055;-78
2021/08/27 10:46:18;;;;;;;;;1.25;1.00;;;;;29.02;34.88;101732.91;5036732;28;45399;-76
2021/08/27 10:48:53;;;;;;;;;1.25;0.00;;;;;29.27;34.03;101723.03;5036753;28;45415;-76
2021/08/27 10:51:29;;;;;;;;;1.00;1.00;;;;;29.50;34.43;101724.13;5035471;28;45443;-76
2021/08/27 10:53:55;;;;;;;;;0.50;0.50;;;;;29.54;33.80;101728.19;5035702;28;45505;-77
2021/08/27 10:56:52;;;;;;;;;0.50;0.50;;;;;29.42;33.95;101734.06;5035972;28;48076;-77
2021/08/27 10:59:22;;;;;;;;;0.00;0.00;;;;;28.95;34.94;101734.56;5029361;28;45508;-76
2021/08/27 11:02:00;;;;;;;;;2.00;2.00;;;;;28.46;35.14;101743.22;5035518;28;45349;-77
2021/08/27 11:04:27;;;;;;;;;0.00;0.00;;;;;27.98;35.48;101735.53;5039149;28;46195;-76
2021/08/27 11:07:04;;;;;;;;;1.00;1.00;;;;;27.49;36.21;101735.88;5037124;28;45321;-77
2021/08/27 11:09:31;;;;;;;;;1.00;1.00;;;;;27.02;36.06;101735.94;5037738;28;45469;-77
2021/08/27 11:12:18;;;;;;;;;1.00;1.00;;;;;26.85;36.46;101717.00;5036117;28;45498;-78
2021/08/27 11:14:51;;;;;;;;;0.50;0.50;;;;;27.12;36.51;101716.19;5036421;28;47522;-77
2021/08/27 11:17:17;;;;;;;;;1.25;1.25;;;;;27.49;36.39;101721.50;5019228;28;45445;-75
2021/08/27 11:19:50;;;;;;;;;1.00;0.75;;;;;27.80;36.01;101722.03;5038240;28;45539;-75
2021/08/27 11:22:20;;;;;;;;;2.00;0.50;;;;;27.90;35.14;101714.69;5036878;28;45359;-76
2021/08/27 11:25:04;;;;;;;;;0.75;0.00;;;;;28.07;35.12;101721.09;5019010;28;49268;-76
2021/08/27 11:27:30;;;;;;;;;1.50;0.50;;;;;28.28;34.98;101710.78;5034946;28;45442;-76